Latest Weather Observations for Cunderdin Airport

IDW60801

Issued at 8:33 pm WST Friday 24 February 2017 (issued every 30 minutes, with the page automatically refreshed every 10 minutes)

About weather observations | Map of weather stations | Latest weather observations for WA | Other Formats
Station Details ID: 010286 Name: CUNDERDIN AIRFIELD Lat: -31.62 Lon: 117.22 Height: 216.7 m
Data from the previous 72 hours. | See also: Recent months at Cunderdin Airport
Date/Time
WST
Temp
°C
App
Temp
°C
Dew
Point
°C
Rel
Hum
%
Delta-T
°C
Wind Press
QNH
hPa
Press
MSL
hPa
Rain since
9am
mm
Dir  Spd
km/h
Gust
km/h
Spd
kts
Gust
kts
24/08:30pm 22.7 22.5 13.7 56 5.3 ENE 7 7 4 4 1019.1 1018.0 0.0
24/08:00pm 25.4 23.7 9.7 37 8.7 ENE 9 11 5 6 1019.0 1017.9 0.0
24/07:30pm 27.1 25.1 8.5 31 10.2 E 9 11 5 6 1018.6 1017.4 0.0
24/07:00pm 26.8 24.9 9.2 33 9.7 ENE 9 13 5 7 1018.3 1017.1 0.0
24/06:30pm 30.6 27.1 7.1 23 12.8 ENE 15 19 8 10 1018.2 1017.0 0.0
24/06:00pm 32.3 28.3 6.5 20 14.0 ENE 17 24 9 13 1018.1 1016.9 0.0
24/05:30pm 33.1 29.4 6.4 19 14.6 ENE 15 20 8 11 1018.2 1017.0 0.0
24/05:00pm 33.6 29.1 4.3 16 15.5 ENE 17 24 9 13 1018.4 1017.2 0.0
24/04:30pm 33.6 29.3 5.2 17 15.3 E 17 24 9 13 1018.5 1017.3 0.0
24/04:00pm 33.9 29.3 5.4 17 15.4 E 19 28 10 15 1018.6 1017.4 0.0
24/03:30pm 34.0 29.4 6.3 18 15.2 ENE 20 33 11 18 1018.7 1017.5 0.0
24/03:00pm 33.8 28.7 6.2 18 15.1 ENE 22 33 12 18 1018.9 1017.8 0.0
24/02:30pm 33.8 28.2 5.4 17 15.3 ENE 24 32 13 17 1019.5 1018.3 0.0
24/02:00pm 33.7 28.2 6.1 18 15.0 NE 24 35 13 19 1019.9 1018.7 0.0
24/01:30pm 33.4 28.8 8.1 21 14.2 ENE 22 30 12 16 1020.4 1019.2 0.0
24/01:00pm 33.3 28.3 8.0 21 14.2 ENE 24 33 13 18 1020.8 1019.6 0.0
24/12:30pm 32.4 27.4 8.0 22 13.6 ENE 24 37 13 20 1021.2 1020.0 0.0
24/12:00pm 31.9 27.5 8.8 24 13.0 ENE 22 33 12 18 1021.5 1020.3 0.0
24/11:30am 31.4 26.5 8.4 24 12.9 ENE 24 33 13 18 1021.9 1020.7 0.0
24/11:00am 31.5 26.8 9.1 25 12.6 NE 24 32 13 17 1022.3 1021.1 0.0
24/10:30am 29.9 25.0 8.3 26 12.0 NE 24 32 13 17 1022.6 1021.4 0.0
24/10:00am 29.1 24.9 9.8 30 10.9 NE 22 32 12 17 1022.9 1021.7 0.0
24/09:30am 27.8 23.3 10.1 33 10.0 ENE 24 37 13 20 1023.1 1022.0 0.0
24/09:00am 26.3 21.3 9.6 35 9.3 ENE 26 35 14 19 1023.2 1022.1 0.0
24/08:30am 24.3 20.0 10.6 42 7.7 ENE 24 32 13 17 1023.3 1022.2 0.0
24/08:00am 22.4 19.2 11.8 51 6.0 E 20 30 11 16 1023.4 1022.3 0.0
24/07:30am 20.2 17.1 11.7 58 4.8 E 19 22 10 12 1023.3 1022.2 0.0
24/07:00am 19.1 16.8 11.7 62 4.1 E 15 20 8 11 1023.2 1022.1 0.0
24/06:30am 17.9 15.9 11.5 66 3.5 E 13 20 7 11 1023.0 1021.9 0.0
24/06:00am 17.0 15.4 11.5 70 3.0 E 11 17 6 9 1022.8 1021.6 0.0
24/05:30am 17.3 15.3 11.6 69 3.1 E 13 17 7 9 1022.4 1021.2 0.0
24/05:00am 17.9 15.3 11.9 68 3.3 E 17 24 9 13 1022.2 1021.0 0.0
24/04:30am 18.1 15.5 12.1 68 3.3 E 17 20 9 11 1021.9 1020.7 0.0
24/04:00am 18.4 16.3 12.4 68 3.4 E 15 20 8 11 1021.7 1020.5 0.0
24/03:30am 18.3 16.2 12.5 69 3.3 E 15 19 8 10 1021.7 1020.5 0.0
24/03:00am 19.2 16.8 12.5 65 3.8 E 17 22 9 12 1021.7 1020.5 0.0
24/02:30am 19.3 17.4 11.8 62 4.2 E 13 19 7 10 1021.7 1020.5 0.0
24/02:00am 20.0 17.1 11.0 56 5.0 E 17 22 9 12 1021.7 1020.5 0.0
24/01:30am 20.5 17.4 10.3 52 5.6 E 17 20 9 11 1021.8 1020.6 0.0
24/01:00am 20.8 18.0 10.0 50 5.9 E 15 20 8 11 1021.7 1020.5 0.0
24/12:30am 21.0 18.6 10.2 50 5.9 E 13 17 7 9 1021.6 1020.4 0.0
24/12:00am 19.6 17.6 10.3 55 5.0 E 11 15 6 8 1021.7 1020.5 0.0
 
Date/Time
WST
Temp
°C
App
Temp
°C
Dew
Point
°C
Rel
Hum
%
Delta-T
°C
Wind Press
QNH
hPa
Press
MSL
hPa
Rain since
9am
mm
Dir  Spd
km/h
Gust
km/h
Spd
kts
Gust
kts
23/11:30pm 20.6 18.6 10.1 51 5.7 E 11 15 6 8 1021.9 1020.7 0.0
23/11:00pm 19.8 18.1 11.3 58 4.7 E 11 13 6 7 1021.9 1020.7 0.0
23/10:30pm 18.2 17.2 12.4 69 3.3 ENE 9 9 5 5 1022.0 1020.8 0.0
23/10:00pm 19.3 18.0 11.1 59 4.5 E 9 11 5 6 1022.0 1020.8 0.0
23/09:30pm 22.0 20.2 9.5 45 6.8 E 9 11 5 6 1021.8 1020.6 0.0
23/09:00pm 23.7 21.8 8.9 39 8.0 SE 9 13 5 7 1021.5 1020.3 0.0
23/08:30pm 24.1 22.1 8.5 37 8.4 SE 9 13 5 7 1021.3 1020.1 0.0
23/08:00pm 24.7 22.3 8.6 36 8.7 SE 11 15 6 8 1020.9 1019.7 0.0
23/07:30pm 25.9 23.2 8.8 34 9.4 SSE 13 19 7 10 1020.6 1019.4 0.0
23/07:00pm 26.7 24.2 8.2 31 10.0 SE 11 15 6 8 1020.3 1019.1 0.0
23/06:30pm 28.6 24.7 7.2 26 11.6 SE 17 20 9 11 1020.0 1018.8 0.0
23/06:00pm 29.7 26.2 7.0 24 12.3 SSE 15 20 8 11 1019.8 1018.6 0.0
23/05:30pm 30.4 27.0 7.6 24 12.5 SE 15 20 8 11 1019.6 1018.4 0.0
23/05:00pm 30.9 27.4 7.4 23 12.9 E 15 20 8 11 1019.6 1018.4 0.0
23/04:30pm 31.2 28.0 7.0 22 13.2 ENE 13 20 7 11 1019.6 1018.4 0.0
23/04:00pm 31.2 27.3 7.0 22 13.2 E 17 22 9 12 1019.7 1018.5 0.0
23/03:30pm 31.3 28.3 7.7 23 13.1 ESE 13 24 7 13 1019.7 1018.5 0.0
23/03:00pm 31.0 27.0 6.8 22 13.1 E 17 33 9 18 1019.7 1018.5 0.0
23/02:30pm 29.9 26.6 6.5 23 12.6 ENE 13 20 7 11 1020.1 1018.9 0.0
23/02:00pm 30.3 27.0 8.1 25 12.3 E 15 22 8 12 1020.5 1019.3 0.0
23/01:30pm 29.7 26.7 7.6 25 12.1 E 13 20 7 11 1020.8 1019.6 0.0
23/01:00pm 28.8 25.8 7.9 27 11.4 ESE 13 20 7 11 1021.0 1019.8 0.0
23/12:30pm 28.2 26.1 9.9 32 10.3 E 11 20 6 11 1021.2 1020.0 0.0
23/12:00pm 27.3 24.7 9.2 32 10.0 ESE 13 22 7 12 1021.5 1020.3 0.0
23/11:30am 27.2 25.2 10.0 34 9.7 SE 11 22 6 12 1021.9 1020.7 0.0
23/11:00am 26.0 23.5 9.8 36 9.0 ESE 13 19 7 10 1022.3 1021.1 0.0
23/10:30am 25.6 23.1 11.0 40 8.3 E 15 20 8 11 1022.6 1021.4 0.0
23/10:00am 24.5 22.0 11.1 43 7.6 E 15 20 8 11 1022.9 1021.7 0.0
23/09:30am 23.4 21.0 11.5 47 6.7 E 15 22 8 12 1022.9 1021.7 0.0
23/09:00am 22.6 19.4 11.4 49 6.3 E 19 24 10 13 1023.2 1022.1 0.0
23/08:30am 21.2 18.4 11.5 54 5.4 ENE 17 22 9 12 1023.0 1021.9 0.0
23/08:00am 19.5 17.5 11.5 60 4.4 E 13 17 7 9 1022.9 1021.7 0.0
23/07:30am 17.4 16.1 11.2 67 3.4 E 9 13 5 7 1022.8 1021.6 0.0
23/07:00am 15.9 15.2 11.5 75 2.4 E 6 9 3 5 1022.6 1021.4 0.0
23/06:30am 12.6 11.8 11.2 91 0.7 E 6 7 3 4 1022.2 1021.0 0.0
23/06:00am 12.0 11.0 10.4 90 0.8 ESE 6 7 3 4 1021.8 1020.6 0.0
23/05:30am 13.2 12.0 10.2 82 1.6 E 7 9 4 5 1021.6 1020.4 0.0
23/05:00am 12.3 11.2 10.7 90 0.8 ENE 7 9 4 5 1021.3 1020.1 0.0
23/04:30am 12.1 11.2 10.5 90 0.8 E 6 7 3 4 1021.2 1020.0 0.0
23/04:00am 11.9 10.8 10.5 91 0.7 NNE 7 9 4 5 1021.2 1020.0 0.0
23/03:30am 13.3 13.6 11.0 86 1.2 CALM 0 0 0 0 1021.2 1020.0 0.0
23/03:00am 14.0 14.4 11.2 83 1.5 CALM 0 0 0 0 1021.0 1019.8 0.0
23/02:30am 14.1 14.5 11.3 83 1.5 CALM 0 0 0 0 1020.8 1019.6 0.0
23/02:00am 13.9 14.3 11.1 83 1.5 CALM 0 0 0 0 1020.6 1019.4 0.0
23/01:30am 13.9 14.3 11.4 85 1.3 CALM 0 0 0 0 1020.7 1019.5 0.0
23/01:00am 14.7 15.2 11.5 81 1.7 CALM 0 0 0 0 1020.9 1019.7 0.0
23/12:30am 15.4 15.9 11.6 78 2.1 CALM 0 4 0 2 1021.1 1019.9 0.0
23/12:00am 16.4 14.7 11.1 71 2.9 E 11 13 6 7 1021.2 1020.0 0.0
 
Date/Time
WST
Temp
°C
App
Temp
°C
Dew
Point
°C
Rel
Hum
%
Delta-T
°C
Wind Press
QNH
hPa
Press
MSL
hPa
Rain since
9am
mm
Dir  Spd
km/h
Gust
km/h
Spd
kts
Gust
kts
22/11:30pm 18.2 16.4 11.0 63 3.9 SE 11 17 6 9 1021.3 1020.1 0.0
22/11:00pm 18.5 16.3 10.8 61 4.2 SE 13 19 7 10 1021.2 1020.0 0.0
22/10:30pm 18.6 16.8 10.7 60 4.3 SE 11 15 6 8 1021.2 1020.0 0.0
22/10:00pm 16.9 17.4 11.6 71 2.9 CALM 0 2 0 1 1021.3 1020.1 0.0
22/09:30pm 18.8 17.8 10.9 60 4.3 SSE 7 9 4 5 1021.3 1020.1 0.0
22/09:00pm 19.0 18.5 10.8 59 4.5 SSE 4 7 2 4 1021.2 1020.0 0.0
22/08:30pm 19.9 18.8 10.6 55 5.1 SE 7 9 4 5 1020.9 1019.7 0.0
22/08:00pm 20.7 19.4 9.9 50 5.9 ENE 7 9 4 5 1020.6 1019.4 0.0
22/07:30pm 21.5 19.8 9.7 47 6.4 SE 9 11 5 6 1020.3 1019.1 0.0
22/07:00pm 22.4 20.6 9.6 44 7.0 SE 9 11 5 6 1019.9 1018.7 0.0
22/06:30pm 23.7 21.9 9.3 40 7.9 ESE 9 13 5 7 1019.5 1018.3 0.0
22/06:00pm 24.5 21.8 8.9 37 8.5 SE 13 15 7 8 1019.1 1018.0 0.0
22/05:30pm 25.2 22.3 8.2 34 9.2 S 13 20 7 11 1019.0 1017.9 0.0
22/05:00pm 25.2 22.7 8.2 34 9.2 S 11 17 6 9 1018.9 1017.8 0.0
22/04:30pm 25.6 23.2 8.6 34 9.3 SSW 11 24 6 13 1019.0 1017.9 0.0
22/04:00pm 25.1 22.7 8.6 35 9.0 SSW 11 19 6 10 1019.1 1018.0 0.0
22/03:30pm 24.9 22.9 8.8 36 8.8 SE 9 15 5 8 1019.3 1018.1 0.0
22/03:00pm 24.6 22.9 8.5 36 8.7 S 7 20 4 11 1019.5 1018.3 0.0
22/02:30pm 24.7 23.5 9.4 38 8.4 N 6 13 3 7 1019.8 1018.6 0.0
22/02:00pm 23.1 21.3 9.5 42 7.4 NW 9 15 5 8 1020.1 1018.9 0.0
22/01:30pm 23.0 22.5 9.4 42 7.4 NW 2 9 1 5 1020.5 1019.3 0.0
22/01:00pm 22.2 20.7 8.3 41 7.4 ESE 6 13 3 7 1020.8 1019.6 0.0
22/12:30pm 21.2 19.6 7.8 42 7.0 NNE 6 13 3 7 1020.9 1019.7 0.0
22/12:00pm 21.7 19.9 9.3 45 6.7 SSW 9 15 5 8 1021.2 1020.0 0.0
22/11:30am 20.7 18.5 7.7 43 6.8 SE 9 17 5 9 1021.6 1020.4 0.0
22/11:00am 19.9 17.3 7.9 46 6.2 E 11 20 6 11 1021.8 1020.6 0.0
22/10:30am 20.0 17.8 8.0 46 6.3 ESE 9 17 5 9 1022.2 1021.0 0.0
22/10:00am 18.4 16.0 6.9 47 5.8 SE 9 17 5 9 1022.3 1021.1 0.0
22/09:30am 17.6 15.0 7.6 52 5.1 SSE 11 17 6 9 1022.3 1021.1 0.0
22/09:00am 17.6 14.5 7.4 51 5.2 SE 13 19 7 10 1022.3 1021.1 0.0
22/08:30am 16.3 13.1 7.0 54 4.7 SE 13 20 7 11 1022.3 1021.1 0.0
22/08:00am 15.5 12.5 7.8 60 3.9 SSW 13 17 7 9 1022.2 1021.0 0.0
22/07:30am 14.4 11.4 7.7 64 3.4 S 13 17 7 9 1022.0 1020.8 0.0
22/07:00am 12.7 10.1 7.8 72 2.4 S 11 13 6 7 1021.7 1020.5 0.0
22/06:30am 10.8 8.5 7.3 79 1.7 SSW 9 11 5 6 1021.2 1020.0 0.0
22/06:00am 10.1 8.0 6.6 79 1.7 S 7 11 4 6 1020.8 1019.6 0.0
22/05:30am 9.9 8.7 6.6 80 1.6 S 2 7 1 4 1020.4 1019.2 0.0
22/05:00am 10.1 9.5 7.2 82 1.4 CALM 0 0 0 0 1020.1 1018.9 0.0
22/04:30am 10.1 9.3 6.6 79 1.7 CALM 0 7 0 4 1019.9 1018.7 0.0
22/04:00am 10.6 8.5 6.7 77 1.9 SSW 7 9 4 5 1019.8 1018.6 0.0
22/03:30am 10.9 8.5 6.8 76 2.0 SSW 9 11 5 6 1019.5 1018.3 0.0
22/03:00am 11.3 9.2 6.8 74 2.2 SSW 7 11 4 6 1019.4 1018.2 0.0
22/02:30am 11.3 9.3 7.2 76 2.0 SW 7 11 4 6 1019.1 1018.0 0.0
22/02:00am 11.1 9.4 8.3 83 1.4 W 7 9 4 5 1018.9 1017.8 0.0
22/01:30am 11.0 9.3 8.2 83 1.4 WNW 7 9 4 5 1018.8 1017.6 0.0
22/01:00am 11.6 10.1 8.3 80 1.6 WSW 6 7 3 4 1018.9 1017.8 0.0
22/12:30am 11.9 10.3 8.2 78 1.8 W 6 7 3 4 1019.0 1017.9 0.0
22/12:00am 12.5 10.4 8.2 75 2.1 SW 9 11 5 6 1018.8 1017.6 0.0
 
Date/Time
WST
Temp
°C
App
Temp
°C
Dew
Point
°C
Rel
Hum
%
Delta-T
°C
Wind Press
QNH
hPa
Press
MSL
hPa
Rain since
9am
mm
Dir  Spd
km/h
Gust
km/h
Spd
kts
Gust
kts
21/11:30pm 13.2 10.6 7.9 70 2.6 SSW 11 15 6 8 1018.5 1017.3 0.0
21/11:00pm 13.7 10.7 7.9 68 2.9 SSW 13 17 7 9 1018.5 1017.3 0.0
21/10:30pm 14.4 11.4 7.7 64 3.4 SW 13 17 7 9 1018.6 1017.4 0.0
21/10:00pm 14.3 11.7 7.8 65 3.3 SW 11 13 6 7 1018.5 1017.3 0.0
21/09:30pm 15.1 12.5 7.9 62 3.6 WSW 11 15 6 8 1018.2 1017.0 0.0
21/09:00pm 15.7 12.7 7.5 58 4.1 WSW 13 15 7 8 1018.0 1016.8 0.0

Other Formats:

Comma delimited format used in spreadsheet applications
http://www.bom.gov.au/fwo/IDW60801/IDW60801.95625.axf

JavaScript Object Notation format (JSON) in row-major order
http://www.bom.gov.au/fwo/IDW60801/IDW60801.95625.json